createdAt,value
2019-05-01T00:01:29.026Z,17.60
2019-05-01T00:04:00.038Z,17.60
2019-05-01T00:06:31.231Z,17.50
2019-05-01T00:09:00.778Z,17.50
2019-05-01T00:11:30.216Z,17.40
2019-05-01T00:13:59.691Z,17.40
2019-05-01T00:16:29.367Z,17.40
2019-05-01T00:18:58.730Z,17.40
2019-05-01T00:21:28.101Z,17.40
2019-05-01T00:23:57.475Z,17.40
2019-05-01T00:26:26.900Z,17.40
2019-05-01T00:28:56.215Z,17.40
2019-05-01T00:31:25.948Z,17.40
2019-05-01T00:33:55.323Z,17.40
2019-05-01T00:36:25.725Z,17.40
2019-05-01T00:38:55.105Z,17.40
2019-05-01T00:41:24.492Z,17.40
2019-05-01T00:43:53.857Z,17.40
2019-05-01T00:46:23.257Z,17.50
2019-05-01T00:48:52.637Z,17.40
2019-05-01T00:51:22.011Z,17.50
2019-05-01T00:53:51.699Z,17.50
2019-05-01T00:56:22.793Z,17.50
2019-05-01T00:58:56.338Z,17.50
2019-05-01T01:01:39.304Z,17.50
2019-05-01T01:04:10.680Z,17.50
2019-05-01T01:06:40.067Z,17.50
2019-05-01T01:09:09.909Z,17.50
2019-05-01T01:11:39.283Z,17.60
2019-05-01T01:14:08.697Z,17.50
2019-05-01T01:16:38.097Z,17.50
2019-05-01T01:19:07.465Z,17.50
2019-05-01T01:21:36.911Z,17.60
2019-05-01T01:24:06.361Z,17.50
2019-05-01T01:26:36.315Z,17.50
2019-05-01T01:29:05.752Z,17.50
2019-05-01T01:31:35.269Z,17.50
2019-05-01T01:34:04.797Z,17.50
2019-05-01T01:36:34.174Z,17.40
2019-05-01T01:39:06.492Z,17.40
2019-05-01T01:41:37.186Z,17.50
2019-05-01T01:44:21.047Z,17.40
2019-05-01T01:46:52.499Z,17.40
2019-05-01T01:49:21.911Z,17.40
2019-05-01T01:51:52.406Z,17.40
2019-05-01T01:54:21.843Z,17.40
2019-05-01T01:56:51.862Z,17.30
2019-05-01T01:59:23.060Z,17.30
2019-05-01T02:01:56.711Z,17.30
2019-05-01T02:04:27.788Z,17.30
2019-05-01T02:06:57.529Z,17.30
2019-05-01T02:09:26.904Z,17.30
2019-05-01T02:11:56.288Z,17.20
2019-05-01T02:14:25.668Z,17.20
2019-05-01T02:16:55.041Z,17.20
2019-05-01T02:19:24.415Z,17.20
2019-05-01T02:21:53.808Z,17.20
2019-05-01T02:24:23.194Z,17.20
2019-05-01T02:26:54.780Z,17.20
2019-05-01T02:29:26.713Z,17.10
2019-05-01T02:31:57.974Z,17.10
2019-05-01T02:34:27.856Z,17.10
2019-05-01T02:37:01.800Z,17.00
2019-05-01T02:39:33.987Z,17.00
2019-05-01T02:42:06.956Z,17.00
2019-05-01T02:44:48.120Z,16.90
2019-05-01T02:47:24.757Z,16.90
2019-05-01T02:50:07.119Z,16.90
2019-05-01T02:52:38.915Z,16.80
2019-05-01T02:55:13.192Z,16.80
2019-05-01T02:57:43.438Z,16.70
2019-05-01T03:00:12.812Z,16.70
2019-05-01T03:02:43.764Z,16.70
2019-05-01T03:05:13.203Z,16.60
2019-05-01T03:07:43.386Z,16.60
2019-05-01T03:10:13.783Z,16.50
2019-05-01T03:12:46.364Z,16.50
2019-05-01T03:15:18.526Z,16.50
2019-05-01T03:17:51.474Z,16.40
2019-05-01T03:20:39.526Z,16.40
2019-05-01T03:23:17.259Z,16.40
2019-05-01T03:25:47.474Z,16.30
2019-05-01T03:28:17.017Z,16.30
2019-05-01T03:30:46.464Z,16.30
2019-05-01T03:33:15.905Z,16.30
2019-05-01T03:35:46.148Z,16.20
2019-05-01T03:38:16.890Z,16.20
2019-05-01T03:40:46.612Z,16.20
2019-05-01T03:43:17.633Z,16.10
2019-05-01T03:45:47.086Z,16.10
2019-05-01T03:48:16.543Z,16.10
2019-05-01T03:50:47.023Z,16.10
2019-05-01T03:53:18.228Z,16.10
2019-05-01T03:55:47.979Z,16.00
2019-05-01T03:58:17.612Z,16.00
2019-05-01T04:00:48.783Z,16.00
2019-05-01T04:03:28.876Z,16.00
2019-05-01T04:05:58.725Z,15.90
2019-05-01T04:08:28.681Z,15.90
2019-05-01T04:10:58.184Z,15.80
2019-05-01T04:13:28.497Z,15.80
2019-05-01T04:15:58.046Z,15.70
2019-05-01T04:18:27.905Z,15.80
2019-05-01T04:20:58.437Z,15.70
2019-05-01T04:23:28.423Z,15.70
2019-05-01T04:25:57.938Z,15.70
2019-05-01T04:28:45.708Z,15.60
2019-05-01T04:31:19.599Z,15.60
2019-05-01T04:33:53.145Z,15.50
2019-05-01T04:36:27.809Z,15.40
2019-05-01T04:38:57.425Z,15.40
2019-05-01T04:41:27.170Z,15.40
2019-05-01T04:43:57.155Z,15.40
2019-05-01T04:46:27.984Z,15.30
2019-05-01T04:48:58.444Z,15.30
2019-05-01T04:51:27.997Z,15.30
2019-05-01T04:53:57.503Z,15.20
2019-05-01T04:56:27.038Z,15.20
2019-05-01T04:58:56.792Z,15.20
2019-05-01T05:01:30.081Z,15.20
2019-05-01T05:04:00.709Z,15.20
2019-05-01T05:06:30.216Z,15.10
2019-05-01T05:08:59.986Z,15.10
2019-05-01T05:11:31.088Z,15.10
2019-05-01T05:16:47.055Z,15.10
2019-05-01T05:19:16.868Z,15.10
2019-05-01T05:21:46.245Z,15.10
2019-05-01T05:24:16.730Z,15.10
2019-05-01T05:26:47.150Z,15.20
2019-05-01T05:29:20.100Z,15.20
2019-05-01T05:31:51.805Z,15.20
2019-05-01T05:34:23.248Z,15.20
2019-05-01T05:36:57.434Z,15.20
2019-05-01T05:39:35.161Z,16.50
2019-05-01T05:42:06.396Z,15.20
2019-05-01T05:44:35.941Z,15.30
2019-05-01T05:47:06.695Z,15.30
2019-05-01T05:49:36.217Z,15.40
2019-05-01T05:52:08.976Z,15.40
2019-05-01T05:54:51.540Z,15.50
2019-05-01T05:57:43.405Z,15.50
2019-05-01T06:00:30.813Z,15.60
2019-05-01T06:03:14.646Z,15.70
2019-05-01T06:06:05.399Z,15.70
2019-05-01T06:08:39.386Z,15.70
2019-05-01T06:11:15.647Z,15.70
2019-05-01T06:13:57.000Z,15.70
2019-05-01T06:16:29.925Z,15.70
2019-05-01T06:19:01.010Z,15.70
2019-05-01T06:21:38.057Z,15.70
2019-05-01T06:24:09.310Z,15.70
2019-05-01T06:26:39.452Z,15.70
2019-05-01T06:29:09.501Z,15.70
2019-05-01T06:31:38.953Z,15.60
2019-05-01T06:34:08.397Z,15.60
2019-05-01T06:36:37.800Z,15.60
2019-05-01T06:39:12.009Z,15.50
2019-05-01T06:41:43.257Z,15.50
2019-05-01T06:44:19.834Z,15.50
2019-05-01T06:46:58.202Z,15.50
2019-05-01T06:49:41.599Z,15.50
2019-05-01T06:52:12.693Z,15.50
2019-05-01T06:54:42.142Z,15.40
2019-05-01T06:57:11.793Z,15.50
2019-05-01T06:59:42.775Z,15.50
2019-05-01T07:02:16.209Z,15.50
2019-05-01T07:04:49.639Z,15.60
2019-05-01T07:07:25.916Z,15.70
2019-05-01T07:09:56.309Z,15.70
2019-05-01T07:12:29.970Z,15.80
2019-05-01T07:14:59.938Z,15.80
2019-05-01T07:17:29.556Z,15.80
2019-05-01T07:20:12.024Z,15.80
2019-05-01T07:22:44.007Z,15.80
2019-05-01T07:25:13.791Z,15.70
2019-05-01T07:27:43.168Z,15.70
2019-05-01T07:30:29.711Z,15.70
2019-05-01T07:32:59.569Z,15.60
2019-05-01T07:35:33.015Z,15.60
2019-05-01T07:38:03.390Z,15.60
2019-05-01T07:40:33.115Z,15.60
2019-05-01T07:43:04.275Z,15.60
2019-05-01T07:45:51.307Z,15.70
2019-05-01T07:48:41.423Z,15.70
2019-05-01T07:51:10.127Z,15.80
2019-05-01T07:53:41.014Z,15.80
2019-05-01T07:56:10.938Z,15.90
2019-05-01T07:58:41.551Z,15.90
2019-05-01T08:01:20.052Z,16.00
2019-05-01T08:03:49.310Z,16.00
2019-05-01T08:06:21.452Z,16.00
2019-05-01T08:08:49.792Z,16.00
2019-05-01T08:11:19.185Z,16.00
2019-05-01T08:13:48.555Z,16.00
2019-05-01T08:16:17.929Z,16.00
2019-05-01T08:18:51.905Z,16.00
2019-05-01T08:21:38.066Z,16.00
2019-05-01T08:24:08.774Z,16.10
2019-05-01T08:26:39.758Z,16.10
2019-05-01T08:29:23.348Z,16.20
2019-05-01T08:31:54.395Z,16.20
2019-05-01T08:34:29.758Z,16.20
2019-05-01T08:36:59.837Z,16.30
2019-05-01T08:39:29.239Z,16.40
2019-05-01T08:42:02.998Z,16.40
2019-05-01T08:44:31.416Z,16.50
2019-05-01T08:47:05.122Z,16.60
2019-05-01T08:49:42.271Z,16.60
2019-05-01T08:52:13.666Z,16.70
2019-05-01T08:54:41.816Z,16.80
2019-05-01T08:57:11.617Z,16.90
2019-05-01T08:59:40.975Z,17.00
2019-05-01T09:02:10.724Z,17.10
2019-05-01T09:04:40.117Z,17.20
2019-05-01T09:07:09.501Z,17.30
2019-05-01T09:09:39.980Z,17.30
2019-05-01T09:12:11.864Z,17.40
2019-05-01T09:14:41.124Z,17.40
2019-05-01T09:17:10.516Z,17.40
2019-05-01T09:19:40.065Z,17.50
2019-05-01T09:22:09.447Z,17.60
2019-05-01T09:24:38.826Z,17.70
2019-05-01T09:27:29.461Z,17.80
2019-05-01T09:30:04.318Z,17.90
2019-05-01T09:32:32.419Z,18.10
2019-05-01T09:35:14.613Z,18.20
2019-05-01T09:37:33.282Z,18.30
2019-05-01T09:40:04.189Z,18.30
2019-05-01T09:42:34.122Z,18.40
2019-05-01T09:45:05.371Z,18.40
2019-05-01T09:47:34.839Z,18.50
2019-05-01T09:50:06.696Z,18.50
2019-05-01T09:52:55.046Z,18.50
2019-05-01T09:55:26.653Z,18.60
2019-05-01T09:57:56.405Z,18.50
2019-05-01T10:00:27.562Z,18.50
2019-05-01T10:02:56.960Z,18.50
2019-05-01T10:05:29.049Z,18.50
2019-05-01T10:08:00.186Z,18.50
2019-05-01T10:10:30.583Z,18.60
2019-05-01T10:13:00.102Z,18.60
2019-05-01T10:15:29.480Z,18.60
2019-05-01T10:17:58.858Z,18.70
2019-05-01T10:20:28.240Z,18.60
2019-05-01T10:22:57.611Z,18.70
2019-05-01T10:25:27.003Z,18.70
2019-05-01T10:27:58.024Z,18.60
2019-05-01T10:30:36.029Z,18.60
2019-05-01T10:33:04.744Z,18.70
2019-05-01T10:35:42.439Z,18.70
2019-05-01T10:38:09.312Z,18.70
2019-05-01T10:40:38.067Z,18.70
2019-05-01T10:43:07.506Z,18.70
2019-05-01T10:45:36.881Z,18.70
2019-05-01T10:48:06.597Z,18.70
2019-05-01T10:50:35.975Z,18.70
2019-05-01T10:53:05.552Z,18.70
2019-05-01T10:55:34.946Z,18.70
2019-05-01T10:58:04.324Z,18.70
2019-05-01T11:00:35.818Z,18.80
2019-05-01T11:03:05.276Z,18.80
2019-05-01T11:05:34.657Z,18.90
2019-05-01T11:08:04.491Z,19.00
2019-05-01T11:10:34.017Z,19.10
2019-05-01T11:13:03.573Z,19.20
2019-05-01T11:15:32.952Z,19.30
2019-05-01T11:18:02.340Z,19.40
2019-05-01T11:20:31.719Z,19.60
2019-05-01T11:23:01.085Z,19.70
2019-05-01T11:25:31.012Z,19.70
2019-05-01T11:28:00.392Z,19.80
2019-05-01T11:30:30.111Z,19.80
2019-05-01T11:33:01.314Z,19.80
2019-05-01T11:35:50.452Z,19.80
2019-05-01T11:38:21.474Z,19.80
2019-05-01T11:40:52.510Z,19.80
2019-05-01T11:43:21.893Z,19.80
2019-05-01T11:45:51.343Z,19.70
2019-05-01T11:48:20.666Z,19.70
2019-05-01T11:50:50.055Z,19.70
2019-05-01T11:53:19.778Z,19.70
2019-05-01T11:55:49.407Z,19.70
2019-05-01T11:58:18.881Z,19.70
2019-05-01T12:00:49.890Z,19.80
2019-05-01T12:03:20.421Z,19.80
2019-05-01T12:05:49.807Z,19.80
2019-05-01T12:08:19.211Z,19.90
2019-05-01T12:10:48.600Z,20.00
2019-05-01T12:13:17.975Z,20.00
2019-05-01T12:15:49.600Z,20.10
2019-05-01T12:18:18.986Z,20.10
2019-05-01T12:20:48.362Z,20.20
2019-05-01T12:23:17.777Z,20.20
2019-05-01T12:25:47.162Z,20.30
2019-05-01T12:28:16.534Z,20.30
2019-05-01T12:30:45.933Z,20.40
2019-05-01T12:33:15.312Z,20.50
2019-05-01T12:35:46.337Z,20.50
2019-05-01T12:38:15.850Z,20.50
2019-05-01T12:40:46.879Z,20.60
2019-05-01T12:43:16.255Z,20.70
2019-05-01T12:45:47.301Z,20.70
2019-05-01T12:48:16.678Z,20.80
2019-05-01T12:50:47.704Z,20.80
2019-05-01T12:53:19.172Z,20.90
2019-05-01T12:55:52.897Z,21.00
2019-05-01T12:58:22.279Z,21.10
2019-05-01T13:00:53.373Z,21.10
2019-05-01T13:03:22.743Z,21.20
2019-05-01T13:05:53.213Z,21.20
2019-05-01T13:08:23.038Z,21.20
2019-05-01T13:10:52.516Z,21.00
2019-05-01T13:13:21.869Z,21.10
2019-05-01T13:15:51.526Z,21.10
2019-05-01T13:18:20.909Z,21.00
2019-05-01T13:20:50.294Z,20.90
2019-05-01T13:23:19.690Z,20.90
2019-05-01T13:25:50.121Z,20.80
2019-05-01T13:28:21.163Z,20.80
2019-05-01T13:31:03.925Z,20.70
2019-05-01T13:33:33.366Z,20.70
2019-05-01T13:36:02.807Z,20.60
2019-05-01T13:38:32.186Z,20.60
2019-05-01T13:41:01.572Z,20.50
2019-05-01T13:43:30.939Z,20.50
2019-05-01T13:46:00.336Z,20.50
2019-05-01T13:48:29.707Z,20.50
2019-05-01T13:50:59.092Z,20.40
2019-05-01T13:53:28.542Z,20.40
2019-05-01T13:55:57.930Z,20.40
2019-05-01T13:58:27.369Z,20.40
2019-05-01T14:00:56.745Z,20.40
2019-05-01T14:03:26.188Z,20.40
2019-05-01T14:05:55.560Z,20.40
2019-05-01T14:08:26.051Z,20.40
2019-05-01T14:10:55.422Z,20.40
2019-05-01T14:13:24.798Z,20.40
2019-05-01T14:15:54.749Z,20.40
2019-05-01T14:18:24.116Z,20.30
2019-05-01T14:21:06.933Z,20.30
2019-05-01T14:23:54.064Z,20.40
2019-05-01T14:26:23.463Z,20.40
2019-05-01T14:28:52.874Z,20.40
2019-05-01T14:31:22.303Z,20.40
2019-05-01T14:33:52.417Z,20.50
2019-05-01T14:36:22.076Z,20.50
2019-05-01T14:38:51.447Z,20.50
2019-05-01T14:41:20.866Z,20.50
2019-05-01T14:43:50.234Z,20.50
2019-05-01T14:46:19.601Z,20.50
2019-05-01T14:48:48.981Z,20.40
2019-05-01T14:51:21.377Z,20.40
2019-05-01T14:53:49.434Z,20.40
2019-05-01T14:56:20.417Z,20.40
2019-05-01T14:58:50.146Z,20.50
2019-05-01T15:01:19.554Z,20.50
2019-05-01T15:03:48.897Z,20.50
2019-05-01T15:06:18.274Z,20.50
2019-05-01T15:08:47.650Z,20.50
2019-05-01T15:11:17.227Z,20.50
2019-05-01T15:13:54.096Z,20.50
2019-05-01T15:16:31.922Z,20.60
2019-05-01T15:19:05.800Z,20.60
2019-05-01T15:21:35.169Z,20.60
2019-05-01T15:24:04.623Z,20.60
2019-05-01T15:26:34.004Z,20.60
2019-05-01T15:29:03.387Z,20.60
2019-05-01T15:31:33.257Z,20.70
2019-05-01T15:34:02.990Z,20.70
2019-05-01T15:36:32.358Z,20.70
2019-05-01T15:39:03.376Z,20.70
2019-05-01T15:41:50.567Z,20.70
2019-05-01T15:44:21.622Z,20.70
2019-05-01T15:46:50.955Z,20.70
2019-05-01T15:49:20.326Z,20.70
2019-05-01T15:51:50.095Z,20.70
2019-05-01T15:54:19.527Z,20.70
2019-05-01T15:56:48.894Z,20.60
2019-05-01T15:59:18.331Z,20.60
2019-05-01T16:01:47.711Z,20.60
2019-05-01T16:04:17.076Z,20.60
2019-05-01T16:06:46.453Z,20.50
2019-05-01T16:09:15.953Z,20.50
2019-05-01T16:12:02.858Z,20.50
2019-05-01T16:14:33.221Z,20.50
2019-05-01T16:17:02.590Z,20.50
2019-05-01T16:19:32.089Z,20.50
2019-05-01T16:22:02.242Z,20.50
2019-05-01T16:24:31.605Z,20.50
2019-05-01T16:27:01.029Z,20.50
2019-05-01T16:29:30.408Z,20.50
2019-05-01T16:31:59.774Z,20.50
2019-05-01T16:34:29.392Z,20.50
2019-05-01T16:36:58.763Z,20.50
2019-05-01T16:39:35.365Z,20.50
2019-05-01T16:42:04.768Z,20.40
2019-05-01T16:44:34.139Z,20.40
2019-05-01T16:47:03.515Z,20.30
2019-05-01T16:49:33.479Z,20.30
2019-05-01T16:52:02.845Z,20.30
2019-05-01T16:54:32.477Z,20.30
2019-05-01T16:57:01.994Z,20.20
2019-05-01T16:59:31.367Z,20.20
2019-05-01T17:02:18.339Z,20.20
2019-05-01T17:05:00.987Z,20.20
2019-05-01T17:07:34.846Z,20.20
2019-05-01T17:10:10.809Z,20.20
2019-05-01T17:12:44.839Z,20.20
2019-05-01T17:15:13.751Z,20.20
2019-05-01T17:17:44.426Z,20.30
2019-05-01T17:20:14.637Z,20.30
2019-05-01T17:22:46.329Z,20.40
2019-05-01T17:25:15.100Z,20.40
2019-05-01T17:27:44.641Z,20.40
2019-05-01T17:30:19.187Z,20.50
2019-05-01T17:32:48.550Z,20.50
2019-05-01T17:35:17.948Z,20.40
2019-05-01T17:37:47.313Z,20.40
2019-05-01T17:40:17.034Z,20.40
2019-05-01T17:42:46.871Z,20.40
2019-05-01T17:45:16.317Z,20.40
2019-05-01T17:47:45.921Z,20.30
2019-05-01T17:50:16.345Z,20.30
2019-05-01T17:52:47.052Z,20.20
2019-05-01T17:55:16.419Z,20.10
2019-05-01T17:57:45.795Z,20.10
2019-05-01T18:00:26.038Z,20.00
2019-05-01T18:03:02.934Z,19.90
2019-05-01T18:05:42.875Z,19.80
2019-05-01T18:08:12.329Z,19.80
2019-05-01T18:10:41.696Z,19.70
2019-05-01T18:13:11.071Z,19.60
2019-05-01T18:15:40.456Z,19.50
2019-05-01T18:18:10.853Z,19.50
2019-05-01T18:20:41.208Z,19.40
2019-05-01T18:23:23.962Z,19.30
2019-05-01T18:26:10.189Z,19.20
2019-05-01T18:28:49.984Z,19.20
2019-05-01T18:31:23.473Z,19.10
2019-05-01T18:33:56.988Z,19.00
2019-05-01T18:36:25.798Z,18.90
2019-05-01T18:38:59.834Z,18.80
2019-05-01T18:41:42.658Z,18.80
2019-05-01T18:44:12.077Z,18.70
2019-05-01T18:46:41.518Z,18.70
2019-05-01T18:49:10.914Z,18.60
2019-05-01T18:51:40.693Z,18.60
2019-05-01T18:54:10.436Z,18.50
2019-05-01T18:56:39.805Z,18.40
2019-05-01T18:59:09.640Z,18.40
2019-05-01T19:01:39.023Z,18.40
2019-05-01T19:04:08.393Z,18.30
2019-05-01T19:06:41.426Z,18.30
2019-05-01T19:09:15.180Z,18.20
2019-05-01T19:11:40.867Z,18.20
2019-05-01T19:14:11.383Z,18.10
2019-05-01T19:16:45.151Z,18.00
2019-05-01T19:19:12.618Z,18.00
2019-05-01T19:21:46.500Z,17.90
2019-05-01T19:24:16.019Z,17.90
2019-05-01T19:26:45.466Z,17.80
2019-05-01T19:29:15.307Z,17.70
2019-05-01T19:31:44.688Z,17.60
2019-05-01T19:34:14.196Z,17.60
2019-05-01T19:36:45.228Z,17.50
2019-05-01T19:39:14.736Z,17.40
2019-05-01T19:41:49.267Z,17.40
2019-05-01T19:44:18.936Z,17.30
2019-05-01T19:46:46.463Z,17.20
2019-05-01T19:49:15.860Z,17.20
2019-05-01T19:51:45.622Z,17.20
2019-05-01T19:54:15.036Z,17.10
2019-05-01T19:56:44.383Z,17.00
2019-05-01T19:59:13.756Z,17.00
2019-05-01T20:01:46.104Z,16.90
2019-05-01T20:04:15.124Z,16.90
2019-05-01T20:06:45.660Z,16.90
2019-05-01T20:09:15.021Z,16.80
2019-05-01T20:11:44.723Z,16.80
2019-05-01T20:14:14.357Z,16.70
2019-05-01T20:16:43.724Z,16.60
2019-05-01T20:19:13.103Z,16.60
2019-05-01T20:21:42.526Z,16.60
2019-05-01T20:24:11.900Z,16.60
2019-05-01T20:26:42.282Z,16.50
2019-05-01T20:29:11.651Z,16.50
2019-05-01T20:31:41.040Z,16.40
2019-05-01T20:34:11.944Z,16.40
2019-05-01T20:36:41.917Z,16.30
2019-05-01T20:39:11.830Z,16.30
2019-05-01T20:41:41.220Z,16.20
2019-05-01T20:44:13.674Z,16.20
2019-05-01T20:46:41.691Z,16.20
2019-05-01T20:49:11.081Z,16.10
2019-05-01T20:51:40.462Z,16.10
2019-05-01T20:54:09.832Z,16.00
2019-05-01T20:56:40.825Z,16.00
2019-05-01T20:59:10.475Z,16.00
2019-05-01T21:01:39.948Z,15.90
2019-05-01T21:04:16.512Z,15.90
2019-05-01T21:06:47.530Z,15.80
2019-05-01T21:09:18.531Z,15.80
2019-05-01T21:11:49.564Z,15.80
2019-05-01T21:14:22.665Z,15.70
2019-05-01T21:16:50.076Z,15.70
2019-05-01T21:19:19.556Z,15.70
2019-05-01T21:21:48.924Z,15.60
2019-05-01T21:24:18.293Z,15.60
2019-05-01T21:26:47.667Z,15.50
2019-05-01T21:29:18.473Z,15.50
2019-05-01T21:31:48.127Z,15.50
2019-05-01T21:34:17.506Z,15.50
2019-05-01T21:36:52.512Z,15.40
2019-05-01T21:39:19.822Z,15.40
2019-05-01T21:41:49.106Z,15.40
2019-05-01T21:44:18.481Z,15.30
2019-05-01T21:46:47.844Z,15.30
2019-05-01T21:49:17.295Z,15.20
2019-05-01T21:51:46.672Z,15.10
2019-05-01T21:54:20.527Z,15.10
2019-05-01T21:56:47.155Z,15.00
2019-05-01T21:59:16.518Z,15.00
2019-05-01T22:01:45.901Z,15.00
2019-05-01T22:04:15.289Z,14.90
2019-05-01T22:06:46.753Z,14.80
2019-05-01T22:09:17.655Z,14.70
2019-05-01T22:11:47.100Z,14.70
2019-05-01T22:14:18.663Z,14.70
2019-05-01T22:16:48.105Z,14.60
2019-05-01T22:19:21.933Z,14.50
2019-05-01T22:21:58.696Z,14.50
2019-05-01T22:24:38.824Z,14.40
2019-05-01T22:27:21.558Z,14.40
2019-05-01T22:29:52.585Z,14.30
2019-05-01T22:32:34.140Z,14.20
2019-05-01T22:35:09.543Z,14.20
2019-05-01T22:37:43.521Z,14.10
2019-05-01T22:40:14.874Z,14.10
2019-05-01T22:42:44.251Z,14.00
2019-05-01T22:45:21.015Z,14.00
2019-05-01T22:47:52.063Z,13.90
2019-05-01T22:50:21.692Z,13.90
2019-05-01T22:52:51.634Z,13.80
2019-05-01T22:55:25.272Z,13.80
2019-05-01T22:57:52.610Z,13.70
2019-05-01T23:00:33.508Z,13.70
2019-05-01T23:03:05.575Z,13.70
2019-05-01T23:05:35.643Z,13.60
2019-05-01T23:08:05.045Z,13.60
2019-05-01T23:10:34.796Z,13.50
2019-05-01T23:13:05.005Z,13.50
2019-05-01T23:18:21.249Z,13.40
2019-05-01T23:20:50.617Z,13.40
2019-05-01T23:23:20.014Z,13.30
2019-05-01T23:25:49.415Z,13.30
2019-05-01T23:28:18.781Z,13.20
2019-05-01T23:30:48.227Z,13.20
2019-05-01T23:33:17.616Z,13.20
2019-05-01T23:35:48.102Z,13.20
2019-05-01T23:38:17.469Z,13.10
2019-05-01T23:40:51.072Z,13.10
2019-05-01T23:43:17.978Z,13.00
2019-05-01T23:45:47.355Z,13.00
2019-05-01T23:48:16.740Z,13.00
2019-05-01T23:50:46.125Z,12.90
2019-05-01T23:53:15.509Z,12.90
2019-05-01T23:55:44.897Z,12.90
2019-05-01T23:58:15.312Z,12.90
